createdAt,value
2023-03-05T00:01:35.486Z,40.27
2023-03-05T00:04:05.601Z,40.48
2023-03-05T00:06:34.378Z,40.33
2023-03-05T00:09:03.628Z,40.37
2023-03-05T00:11:32.214Z,40.36
2023-03-05T00:14:02.146Z,40.33
2023-03-05T00:16:30.514Z,40.27
2023-03-05T00:19:00.282Z,40.41
2023-03-05T00:21:39.678Z,40.32
2023-03-05T00:24:18.467Z,40.33
2023-03-05T00:26:47.018Z,40.29
2023-03-05T00:29:18.701Z,40.14
2023-03-05T00:31:47.361Z,40.30
2023-03-05T00:34:17.786Z,40.37
2023-03-05T00:36:51.708Z,40.36
2023-03-05T00:39:22.009Z,40.27
2023-03-05T00:41:50.546Z,40.22
2023-03-05T00:44:19.675Z,40.21
2023-03-05T00:46:48.605Z,40.12
2023-03-05T00:49:17.203Z,40.31
2023-03-05T00:51:46.097Z,40.35
2023-03-05T00:54:14.447Z,40.33
2023-03-05T00:56:43.249Z,40.09
2023-03-05T00:59:11.733Z,40.07
2023-03-05T01:01:40.752Z,40.41
2023-03-05T01:04:09.610Z,40.27
2023-03-05T01:06:42.957Z,40.26
2023-03-05T01:09:11.426Z,40.30
2023-03-05T01:11:40.707Z,40.44
2023-03-05T01:14:09.467Z,40.11
2023-03-05T01:16:38.465Z,40.13
2023-03-05T01:19:07.349Z,40.23
2023-03-05T01:21:37.089Z,40.26
2023-03-05T01:24:06.291Z,40.57
2023-03-05T01:26:35.477Z,40.24
2023-03-05T01:29:04.334Z,40.27
2023-03-05T01:31:33.418Z,40.33
2023-03-05T01:34:02.158Z,40.13
2023-03-05T01:36:32.236Z,40.09
2023-03-05T01:39:01.558Z,40.31
2023-03-05T01:41:30.537Z,40.49
2023-03-05T01:44:00.563Z,40.30
2023-03-05T01:46:37.305Z,40.44
2023-03-05T01:49:20.948Z,40.29
2023-03-05T01:52:18.102Z,40.42
2023-03-05T01:54:57.863Z,40.56
2023-03-05T01:57:40.690Z,40.35
2023-03-05T02:00:27.012Z,40.33
2023-03-05T02:02:56.039Z,40.36
2023-03-05T02:05:31.375Z,40.44
2023-03-05T02:08:01.833Z,40.52
2023-03-05T02:10:49.798Z,40.50
2023-03-05T02:13:31.950Z,40.26
2023-03-05T02:16:01.000Z,40.29
2023-03-05T02:18:30.549Z,40.26
2023-03-05T02:21:04.836Z,40.05
2023-03-05T02:23:38.642Z,40.27
2023-03-05T02:26:11.245Z,40.37
2023-03-05T02:28:53.008Z,40.43
2023-03-05T02:31:23.886Z,40.33
2023-03-05T02:33:54.241Z,40.20
2023-03-05T02:36:23.371Z,40.49
2023-03-05T02:38:53.859Z,40.28
2023-03-05T02:41:23.199Z,40.03
2023-03-05T02:43:52.348Z,40.16
2023-03-05T02:46:20.990Z,40.31
2023-03-05T02:48:50.619Z,40.30
2023-03-05T02:51:19.360Z,40.16
2023-03-05T02:53:49.399Z,40.25
2023-03-05T02:56:18.870Z,40.21
2023-03-05T02:58:47.806Z,40.40
2023-03-05T03:01:16.422Z,40.14
2023-03-05T03:03:45.343Z,40.32
2023-03-05T03:06:13.991Z,40.37
2023-03-05T03:08:43.214Z,40.01
2023-03-05T03:11:14.991Z,40.24
2023-03-05T03:13:43.904Z,39.92
2023-03-05T03:16:14.445Z,40.19
2023-03-05T03:18:44.612Z,39.84
2023-03-05T03:21:20.057Z,40.08
2023-03-05T03:23:49.008Z,39.98
2023-03-05T03:26:18.097Z,39.91
2023-03-05T03:28:47.285Z,39.84
2023-03-05T03:31:16.081Z,39.81
2023-03-05T03:33:45.247Z,39.89
2023-03-05T03:36:13.909Z,39.87
2023-03-05T03:38:42.847Z,39.83
2023-03-05T03:41:11.396Z,39.62
2023-03-05T03:43:40.404Z,39.83
2023-03-05T03:46:09.479Z,39.90
2023-03-05T03:48:38.460Z,39.75
2023-03-05T03:51:07.939Z,40.00
2023-03-05T03:53:36.926Z,39.89
2023-03-05T03:56:05.951Z,39.66
2023-03-05T03:58:34.935Z,39.54
2023-03-05T04:01:03.754Z,39.69
2023-03-05T04:03:32.714Z,39.64
2023-03-05T04:06:01.363Z,39.54
2023-03-05T04:08:30.412Z,39.80
2023-03-05T04:11:01.342Z,39.62
2023-03-05T04:13:30.344Z,39.58
2023-03-05T04:15:59.033Z,39.56
2023-03-05T04:18:27.945Z,39.69
2023-03-05T04:20:56.576Z,39.73
2023-03-05T04:23:25.935Z,39.51
2023-03-05T04:25:54.602Z,39.53
2023-03-05T04:28:23.564Z,39.45
2023-03-05T04:30:52.419Z,39.39
2023-03-05T04:33:21.317Z,39.68
2023-03-05T04:35:50.126Z,39.53
2023-03-05T04:38:19.260Z,39.63
2023-03-05T04:40:47.989Z,39.55
2023-03-05T04:43:17.024Z,39.57
2023-03-05T04:45:45.804Z,39.43
2023-03-05T04:48:15.121Z,39.45
2023-03-05T04:50:43.897Z,39.47
2023-03-05T04:53:13.140Z,39.47
2023-03-05T04:55:41.856Z,39.45
2023-03-05T04:58:10.857Z,39.54
2023-03-05T05:00:39.763Z,39.42
2023-03-05T05:03:08.631Z,39.35
2023-03-05T05:05:37.860Z,39.65
2023-03-05T05:08:06.645Z,39.48
2023-03-05T05:10:35.086Z,39.70
2023-03-05T05:13:03.880Z,39.62
2023-03-05T05:15:32.566Z,39.44
2023-03-05T05:18:01.301Z,38.99
2023-03-05T05:20:29.911Z,39.14
2023-03-05T05:22:58.796Z,38.93
2023-03-05T05:25:27.211Z,38.74
2023-03-05T05:27:55.952Z,38.46
2023-03-05T05:30:24.509Z,38.46
2023-03-05T05:32:53.428Z,38.16
2023-03-05T05:35:21.859Z,37.95
2023-03-05T05:37:50.560Z,37.91
2023-03-05T05:40:19.171Z,37.58
2023-03-05T05:42:47.945Z,37.65
2023-03-05T05:45:16.358Z,37.38
2023-03-05T05:47:45.359Z,37.22
2023-03-05T05:50:14.627Z,37.29
2023-03-05T05:52:43.572Z,36.96
2023-03-05T05:55:12.177Z,37.02
2023-03-05T05:57:41.197Z,36.79
2023-03-05T06:00:11.562Z,36.71
2023-03-05T06:02:41.535Z,36.45
2023-03-05T06:05:12.499Z,36.35
2023-03-05T06:07:41.316Z,36.43
2023-03-05T06:10:10.983Z,36.27
2023-03-05T06:12:39.935Z,36.50
2023-03-05T06:15:09.159Z,36.09
2023-03-05T06:17:37.976Z,36.36
2023-03-05T06:20:07.469Z,36.28
2023-03-05T06:22:38.135Z,36.23
2023-03-05T06:25:11.756Z,36.22
2023-03-05T06:27:40.711Z,36.39
2023-03-05T06:30:10.842Z,36.48
2023-03-05T06:32:40.212Z,36.56
2023-03-05T06:35:09.363Z,36.54
2023-03-05T06:37:38.274Z,36.65
2023-03-05T06:40:07.974Z,36.42
2023-03-05T06:42:36.937Z,36.84
2023-03-05T06:45:06.077Z,36.70
2023-03-05T06:47:35.424Z,36.75
2023-03-05T06:50:04.116Z,36.78
2023-03-05T06:52:32.986Z,36.71
2023-03-05T06:55:01.394Z,36.77
2023-03-05T06:57:30.445Z,36.87
2023-03-05T06:59:58.817Z,36.88
2023-03-05T07:02:27.907Z,36.84
2023-03-05T07:04:56.317Z,36.85
2023-03-05T07:07:25.308Z,37.01
2023-03-05T07:09:53.960Z,36.88
2023-03-05T07:12:22.662Z,36.99
2023-03-05T07:14:50.976Z,37.05
2023-03-05T07:17:19.986Z,37.01
2023-03-05T07:19:48.360Z,37.21
2023-03-05T07:22:17.302Z,37.24
2023-03-05T07:24:45.804Z,37.18
2023-03-05T07:27:14.409Z,37.26
2023-03-05T07:29:42.786Z,37.18
2023-03-05T07:32:11.534Z,37.08
2023-03-05T07:34:39.926Z,37.20
2023-03-05T07:37:08.818Z,37.27
2023-03-05T07:39:37.220Z,37.27
2023-03-05T07:42:06.110Z,37.24
2023-03-05T07:44:50.529Z,37.38
2023-03-05T07:47:19.486Z,37.31
2023-03-05T07:49:47.894Z,37.20
2023-03-05T07:52:16.610Z,37.29
2023-03-05T07:54:45.140Z,37.37
2023-03-05T07:57:13.913Z,37.37
2023-03-05T07:59:43.330Z,37.38
2023-03-05T08:02:13.477Z,37.50
2023-03-05T08:04:43.401Z,37.41
2023-03-05T08:07:16.366Z,37.52
2023-03-05T08:09:44.713Z,37.46
2023-03-05T08:12:13.419Z,37.47
2023-03-05T08:14:41.729Z,37.45
2023-03-05T08:17:10.401Z,37.49
2023-03-05T08:19:38.781Z,37.58
2023-03-05T08:22:07.859Z,37.61
2023-03-05T08:24:36.324Z,37.53
2023-03-05T08:27:05.080Z,37.70
2023-03-05T08:29:33.721Z,37.48
2023-03-05T08:32:02.420Z,37.77
2023-03-05T08:34:30.811Z,37.79
2023-03-05T08:36:59.559Z,37.68
2023-03-05T08:39:30.434Z,37.79
2023-03-05T08:41:59.140Z,37.59
2023-03-05T08:44:27.565Z,38.84
2023-03-05T08:46:56.489Z,38.31
2023-03-05T08:49:24.881Z,38.35
2023-03-05T08:51:53.583Z,38.51
2023-03-05T08:54:21.850Z,38.65
2023-03-05T08:56:50.533Z,38.20
2023-03-05T08:59:18.871Z,38.16
2023-03-05T09:01:48.121Z,38.46
2023-03-05T09:04:16.799Z,39.26
2023-03-05T09:06:45.571Z,39.60
2023-03-05T09:09:14.355Z,40.12
2023-03-05T09:11:43.625Z,40.44
2023-03-05T09:14:12.083Z,40.57
2023-03-05T09:16:41.927Z,42.21
2023-03-05T09:19:12.882Z,42.09
2023-03-05T09:21:42.204Z,41.92
2023-03-05T09:24:11.958Z,41.84
2023-03-05T09:26:42.391Z,41.53
2023-03-05T09:29:10.753Z,41.82
2023-03-05T09:31:40.120Z,41.34
2023-03-05T09:34:09.463Z,40.73
2023-03-05T09:36:38.271Z,40.24
2023-03-05T09:39:07.218Z,39.75
2023-03-05T09:42:10.156Z,39.47
2023-03-05T09:45:24.439Z,39.26
2023-03-05T09:48:13.889Z,39.00
2023-03-05T09:51:01.535Z,39.06
2023-03-05T09:54:03.541Z,38.87
2023-03-05T09:56:38.190Z,38.69
2023-03-05T09:59:27.866Z,38.82
2023-03-05T10:02:00.451Z,38.78
2023-03-05T10:04:50.410Z,38.93
2023-03-05T10:07:42.161Z,38.88
2023-03-05T10:10:43.482Z,38.82
2023-03-05T10:13:21.629Z,39.00
2023-03-05T10:16:29.531Z,39.26
2023-03-05T10:19:14.368Z,39.05
2023-03-05T10:21:57.770Z,38.96
2023-03-05T10:25:04.907Z,39.08
2023-03-05T10:27:52.546Z,39.21
2023-03-05T10:30:50.144Z,39.29
2023-03-05T10:33:35.633Z,39.26
2023-03-05T10:36:22.984Z,39.35
2023-03-05T10:39:17.824Z,39.33
2023-03-05T10:42:06.451Z,39.16
2023-03-05T10:44:57.163Z,39.36
2023-03-05T10:47:55.678Z,39.23
2023-03-05T10:50:28.448Z,39.30
2023-03-05T10:53:24.654Z,39.41
2023-03-05T10:55:56.440Z,39.27
2023-03-05T10:58:25.449Z,39.31
2023-03-05T11:01:19.250Z,39.33
2023-03-05T11:03:47.550Z,39.34
2023-03-05T11:06:16.599Z,39.31
2023-03-05T11:08:45.575Z,39.27
2023-03-05T11:11:21.614Z,39.32
2023-03-05T11:13:59.328Z,39.27
2023-03-05T11:16:34.199Z,39.16
2023-03-05T11:19:18.683Z,39.11
2023-03-05T11:22:21.350Z,38.85
2023-03-05T11:25:06.243Z,39.41
2023-03-05T11:28:02.639Z,39.34
2023-03-05T11:30:36.458Z,39.41
2023-03-05T11:33:11.678Z,39.35
2023-03-05T11:35:42.236Z,39.24
2023-03-05T11:38:27.096Z,39.20
2023-03-05T11:40:56.873Z,39.24
2023-03-05T11:43:26.299Z,39.33
2023-03-05T11:46:02.430Z,39.35
2023-03-05T11:48:36.475Z,39.26
2023-03-05T11:51:19.343Z,39.20
2023-03-05T11:53:51.953Z,39.14
2023-03-05T11:56:36.997Z,39.22
2023-03-05T11:59:19.637Z,39.23
2023-03-05T12:01:55.974Z,39.32
2023-03-05T12:04:24.790Z,39.35
2023-03-05T12:07:02.671Z,39.41
2023-03-05T12:09:50.285Z,39.43
2023-03-05T12:12:36.543Z,39.42
2023-03-05T12:16:02.147Z,39.18
2023-03-05T12:19:01.342Z,39.13
2023-03-05T12:21:43.333Z,39.18
2023-03-05T12:24:26.700Z,39.33
2023-03-05T12:27:04.195Z,39.23
2023-03-05T12:29:47.178Z,39.28
2023-03-05T12:32:35.855Z,39.24
2023-03-05T12:35:26.056Z,39.13
2023-03-05T12:37:54.953Z,39.20
2023-03-05T12:40:30.054Z,39.34
2023-03-05T12:43:06.720Z,39.37
2023-03-05T12:45:42.362Z,38.96
2023-03-05T12:48:12.952Z,39.17
2023-03-05T12:50:43.359Z,39.15
2023-03-05T12:53:18.420Z,39.13
2023-03-05T12:56:14.033Z,39.26
2023-03-05T12:58:52.076Z,39.25
2023-03-05T13:01:44.773Z,39.35
2023-03-05T13:04:24.266Z,39.26
2023-03-05T13:07:12.946Z,39.32
2023-03-05T13:09:41.811Z,39.34
2023-03-05T13:12:13.426Z,39.42
2023-03-05T13:14:47.017Z,39.51
2023-03-05T13:17:34.244Z,39.42
2023-03-05T13:20:23.677Z,39.32
2023-03-05T13:23:21.158Z,39.48
2023-03-05T13:26:11.345Z,39.44
2023-03-05T13:28:40.164Z,39.50
2023-03-05T13:31:18.332Z,39.33
2023-03-05T13:33:56.285Z,39.27
2023-03-05T13:36:26.205Z,39.49
2023-03-05T13:38:54.471Z,39.50
2023-03-05T13:41:27.936Z,39.42
2023-03-05T13:43:57.833Z,39.55
2023-03-05T13:46:38.781Z,39.32
2023-03-05T13:49:23.843Z,39.48
2023-03-05T13:52:01.849Z,39.42
2023-03-05T13:54:30.966Z,39.38
2023-03-05T13:57:06.139Z,39.62
2023-03-05T13:59:39.373Z,39.57
2023-03-05T14:02:19.827Z,39.60
2023-03-05T14:04:48.234Z,39.45
2023-03-05T14:07:53.218Z,39.51
2023-03-05T14:10:38.979Z,39.47
2023-03-05T14:13:14.720Z,39.50
2023-03-05T14:15:43.006Z,39.64
2023-03-05T14:18:11.541Z,39.68
2023-03-05T14:21:01.616Z,39.65
2023-03-05T14:23:37.823Z,39.61
2023-03-05T14:26:33.759Z,39.84
2023-03-05T14:29:17.744Z,39.70
2023-03-05T14:31:57.566Z,39.68
2023-03-05T14:34:43.159Z,39.65
2023-03-05T14:37:22.503Z,39.63
2023-03-05T14:40:08.090Z,39.61
2023-03-05T14:42:39.456Z,39.68
2023-03-05T14:45:18.008Z,39.84
2023-03-05T14:47:46.316Z,39.75
2023-03-05T14:50:23.987Z,39.63
2023-03-05T14:52:56.628Z,39.64
2023-03-05T14:55:27.691Z,39.77
2023-03-05T14:58:05.333Z,39.80
2023-03-05T15:00:34.105Z,39.71
2023-03-05T15:03:02.610Z,39.63
2023-03-05T15:05:31.289Z,39.69
2023-03-05T15:07:59.720Z,39.65
2023-03-05T15:10:28.408Z,39.83
2023-03-05T15:12:56.761Z,39.98
2023-03-05T15:15:25.820Z,39.76
2023-03-05T15:17:56.186Z,39.88
2023-03-05T15:20:28.065Z,39.81
2023-03-05T15:22:56.492Z,39.80
2023-03-05T15:25:27.091Z,39.71
2023-03-05T15:27:55.458Z,39.70
2023-03-05T15:30:33.541Z,39.76
2023-03-05T15:33:07.750Z,39.92
2023-03-05T15:35:36.553Z,40.10
2023-03-05T15:38:05.066Z,39.78
2023-03-05T15:40:33.818Z,39.96
2023-03-05T15:43:02.241Z,39.97
2023-03-05T15:45:31.601Z,39.96
2023-03-05T15:47:59.977Z,40.04
2023-03-05T15:50:28.702Z,40.15
2023-03-05T15:52:57.566Z,39.99
2023-03-05T15:55:26.146Z,40.19
2023-03-05T15:57:54.613Z,39.94
2023-03-05T16:00:29.749Z,40.03
2023-03-05T16:02:58.180Z,40.01
2023-03-05T16:05:27.045Z,40.03
2023-03-05T16:07:55.430Z,40.10
2023-03-05T16:10:25.767Z,40.09
2023-03-05T16:12:58.074Z,40.06
2023-03-05T16:15:26.673Z,40.25
2023-03-05T16:17:55.527Z,40.35
2023-03-05T16:20:24.366Z,40.24
2023-03-05T16:22:52.657Z,40.12
2023-03-05T16:25:22.305Z,40.28
2023-03-05T16:27:50.716Z,40.17
2023-03-05T16:30:19.757Z,40.05
2023-03-05T16:32:48.143Z,40.09
2023-03-05T16:35:17.220Z,39.84
2023-03-05T16:37:45.669Z,39.68
2023-03-05T16:40:14.605Z,39.78
2023-03-05T16:42:43.157Z,39.58
2023-03-05T16:45:12.450Z,39.57
2023-03-05T16:47:41.204Z,39.24
2023-03-05T16:50:11.155Z,39.29
2023-03-05T16:52:39.683Z,39.27
2023-03-05T16:55:08.928Z,39.09
2023-03-05T16:57:39.913Z,39.09
2023-03-05T17:00:11.860Z,38.78
2023-03-05T17:02:40.611Z,38.88
2023-03-05T17:05:09.976Z,38.66
2023-03-05T17:07:38.620Z,38.86
2023-03-05T17:10:08.861Z,38.82
2023-03-05T17:12:37.366Z,38.80
2023-03-05T17:15:07.706Z,38.81
2023-03-05T17:17:37.864Z,39.06
2023-03-05T17:20:07.959Z,38.92
2023-03-05T17:22:36.473Z,39.37
2023-03-05T17:25:05.869Z,39.12
2023-03-05T17:27:36.872Z,39.39
2023-03-05T17:30:08.521Z,39.59
2023-03-05T17:32:37.233Z,39.67
2023-03-05T17:35:06.686Z,39.48
2023-03-05T17:37:35.225Z,39.78
2023-03-05T17:40:04.639Z,39.53
2023-03-05T17:42:33.194Z,39.80
2023-03-05T17:45:02.076Z,39.83
2023-03-05T17:47:33.401Z,39.90
2023-03-05T17:50:02.625Z,40.03
2023-03-05T17:52:31.472Z,40.15
2023-03-05T17:55:00.425Z,40.17
2023-03-05T17:57:30.305Z,40.40
2023-03-05T17:59:59.458Z,40.23
2023-03-05T18:02:29.368Z,40.40
2023-03-05T18:04:59.839Z,40.38
2023-03-05T18:07:29.757Z,40.43
2023-03-05T18:10:00.364Z,40.56
2023-03-05T18:12:29.385Z,40.61
2023-03-05T18:14:58.186Z,40.55
2023-03-05T18:17:26.696Z,40.67
2023-03-05T18:19:57.326Z,40.66
2023-03-05T18:22:26.183Z,40.57
2023-03-05T18:24:55.496Z,40.79
2023-03-05T18:27:25.156Z,40.73
2023-03-05T18:29:54.474Z,40.50
2023-03-05T18:32:24.617Z,40.50
2023-03-05T18:34:53.689Z,40.49
2023-03-05T18:37:22.252Z,40.39
2023-03-05T18:39:52.325Z,40.24
2023-03-05T18:42:20.870Z,39.98
2023-03-05T18:44:50.053Z,39.91
2023-03-05T18:47:18.582Z,39.89
2023-03-05T18:49:47.461Z,39.91
2023-03-05T18:52:16.063Z,39.84
2023-03-05T18:54:45.102Z,39.71
2023-03-05T18:57:13.642Z,39.64
2023-03-05T18:59:42.567Z,39.89
2023-03-05T19:02:17.605Z,39.88
2023-03-05T19:04:46.522Z,40.11
2023-03-05T19:07:15.183Z,40.02
2023-03-05T19:10:11.193Z,40.06
2023-03-05T19:13:24.303Z,40.18
2023-03-05T19:16:01.125Z,40.21
2023-03-05T19:19:00.009Z,40.29
2023-03-05T19:21:53.851Z,40.41
2023-03-05T19:24:23.184Z,40.28
2023-03-05T19:26:55.515Z,40.54
2023-03-05T19:29:24.436Z,40.33
2023-03-05T19:31:54.005Z,40.56
2023-03-05T19:34:22.456Z,40.51
2023-03-05T19:36:51.389Z,40.59
2023-03-05T19:39:20.082Z,40.71
2023-03-05T19:41:48.927Z,40.98
2023-03-05T19:44:19.083Z,41.07
2023-03-05T19:46:48.869Z,41.41
2023-03-05T19:49:17.753Z,41.51
2023-03-05T19:51:46.725Z,41.44
2023-03-05T19:54:16.383Z,41.57
2023-03-05T19:56:46.099Z,41.72
2023-03-05T19:59:21.225Z,41.60
2023-03-05T20:01:50.318Z,41.82
2023-03-05T20:04:21.877Z,41.57
2023-03-05T20:06:51.417Z,41.72
2023-03-05T20:09:20.046Z,41.42
2023-03-05T20:11:48.905Z,41.44
2023-03-05T20:14:17.456Z,41.41
2023-03-05T20:16:46.465Z,41.69
2023-03-05T20:19:18.680Z,41.97
2023-03-05T20:21:48.842Z,42.11
2023-03-05T20:24:19.276Z,42.21
2023-03-05T20:26:48.322Z,42.29
2023-03-05T20:29:18.318Z,42.20
2023-03-05T20:31:47.875Z,42.40
2023-03-05T20:34:18.523Z,42.26
2023-03-05T20:36:47.514Z,42.28
2023-03-05T20:39:16.240Z,42.32
2023-03-05T20:41:45.205Z,42.46
2023-03-05T20:44:14.434Z,42.41
2023-03-05T20:47:37.595Z,42.35
2023-03-05T20:50:10.103Z,42.21
2023-03-05T20:52:39.537Z,42.34
2023-03-05T20:55:08.879Z,42.19
2023-03-05T20:57:37.777Z,42.36
2023-03-05T21:00:07.669Z,42.12
2023-03-05T21:02:36.572Z,42.28
2023-03-05T21:05:06.225Z,42.31
2023-03-05T21:07:37.726Z,42.28
2023-03-05T21:10:06.830Z,42.29
2023-03-05T21:12:35.506Z,42.29
2023-03-05T21:15:04.277Z,42.26
2023-03-05T21:17:33.100Z,42.06
2023-03-05T21:20:01.943Z,42.11
2023-03-05T21:22:30.946Z,42.01
2023-03-05T21:25:25.115Z,42.40
2023-03-05T21:27:58.199Z,42.18
2023-03-05T21:30:38.055Z,42.09
2023-03-05T21:33:19.117Z,42.20
2023-03-05T21:35:47.643Z,42.03
2023-03-05T21:38:16.703Z,42.34
2023-03-05T21:40:45.964Z,42.20
2023-03-05T21:43:18.926Z,42.26
2023-03-05T21:45:47.819Z,42.11
2023-03-05T21:48:16.739Z,42.20
2023-03-05T21:50:45.843Z,42.08
2023-03-05T21:53:15.376Z,42.16
2023-03-05T21:56:19.661Z,42.00
2023-03-05T21:58:52.230Z,42.09
2023-03-05T22:01:21.865Z,42.01
2023-03-05T22:03:50.896Z,42.26
2023-03-05T22:06:19.646Z,42.13
2023-03-05T22:08:48.554Z,42.19
2023-03-05T22:11:17.946Z,42.26
2023-03-05T22:13:46.568Z,42.25
2023-03-05T22:16:25.790Z,42.09
2023-03-05T22:18:54.597Z,42.23
2023-03-05T22:21:28.252Z,42.26
2023-03-05T22:23:57.404Z,42.29
2023-03-05T22:26:27.121Z,42.15
2023-03-05T22:28:55.791Z,42.13
2023-03-05T22:31:26.333Z,42.11
2023-03-05T22:33:54.989Z,42.12
2023-03-05T22:36:23.932Z,42.21
2023-03-05T22:38:53.072Z,42.13
2023-03-05T22:41:21.955Z,42.06
2023-03-05T22:43:50.980Z,42.12
2023-03-05T22:46:25.184Z,42.09
2023-03-05T22:48:54.125Z,42.03
2023-03-05T22:51:22.597Z,42.03
2023-03-05T22:53:51.396Z,42.07
2023-03-05T22:56:20.499Z,41.78
2023-03-05T22:58:49.184Z,41.87
2023-03-05T23:01:23.334Z,41.95
2023-03-05T23:04:55.031Z,41.86
2023-03-05T23:07:26.573Z,42.02
2023-03-05T23:10:02.231Z,41.79
2023-03-05T23:12:33.112Z,41.81
2023-03-05T23:15:04.183Z,41.89
2023-03-05T23:17:32.612Z,41.76
2023-03-05T23:20:01.174Z,41.92
2023-03-05T23:22:29.553Z,41.67
2023-03-05T23:24:58.134Z,41.97
2023-03-05T23:27:26.519Z,41.85
2023-03-05T23:30:21.737Z,41.78
2023-03-05T23:33:19.615Z,41.90
2023-03-05T23:35:59.183Z,41.80
2023-03-05T23:38:29.040Z,41.88
2023-03-05T23:41:01.185Z,41.79
2023-03-05T23:43:30.212Z,41.76
2023-03-05T23:46:00.640Z,41.70
2023-03-05T23:48:29.721Z,41.75
2023-03-05T23:50:58.382Z,41.71
2023-03-05T23:53:29.511Z,41.79
2023-03-05T23:55:58.274Z,41.60
2023-03-05T23:58:26.815Z,41.75
